Main page
METAR-TAF:

METAR-TAF

Airports :

Rabat–Salé Airport

Rabat, Morocco

latitude: 34-03N, longitude: 006-46W, elevation: 84 m

Current weather observation

The report was made 22 minutes ago, at 05:30 UTC
Wind 4 kt from the Southwest, varying between South and West
Temperature 23°C
Humidity 78%
Pressure 1013 hPa
Visibility 10 km or more

METAR: GMME 250530Z AUTO 23004KT 180V260 9999NDV /// 23/19 Q1013

Time: 06:52 (05:52 UTC)

Forecast

The report was made 6 hours and 52 minutes ago, at 23:00 UTC
Forecast valid from 25 at 00 UTC to 26 at 06 UTC
Wind 10 kt from the Northwest
Visibility: 8000 m
Temporary
from 25 at 02 UTC to 25 at 08 UTC
Wind 2 kt from variable directions
Visibility: 3000 m
Broken clouds at a height of 600 ft
Scattered clouds at a height of 1500 ft
mist
Becoming
from 25 at 10 UTC to 25 at 14 UTC
Wind 8 kt from the West
Visibility: 7000 m

TAF: GMME 242300Z 2500/2606 32010KT 8000 NSC TEMPO 2502/2508 VRB02KT 3000 BR BKN006 SCT015 BECMG 2510/2514 26008KT 7000 NSW NSC

Weather observations and forecasts of more than 4000 airports (METAR and TAF reports).

The available stations are represented by yellow and red dots on the map.

Hover mouse over dot to see the name of the station.

Then click to see weather observations and forecasts.

To change the map : click on the green buttons with a black cross to zoom in, on the green button with a dash to zoom out, or on the green arrows for adjacent maps.


METAR-TAF: